Etusivu
METAR-TAF:

Lentoasemat :

Kittilä, Suomi

Kittilän lentoasema

Leveyspiiri: 67-42N, Pituuspiiri: 024-51E, korkeus merenpinnasta: 196 m

Tämänhetkinen sää

Tämä raportti tehtiin 41 minuuttia sitten, kello 22.20 UTC
Tuuli 5 kn lännestä, vaihdellen lännen/lounaan ja luoteen välillä
Lämpötila 5°C
Kosteus 75%
Ilmanpaine 1021 hPa
Näkyvyys 10 km tai enemmän
ei pilviä alle 1500 m:ssä eikä cumulonimbus-pilviä

METAR: EFKT 042220Z AUTO 28005KT 240V320 CAVOK 05/01 Q1021

Aika: 02:01 (23:01 UTC)

Sääennuste

Tämä raportti tehtiin 8 tuntia ja 37 minuuttia sitten, kello 14.24 UTC
Ennuste voimassa 04. päivästä klo 15 UTC - 04. päivään klo 17 UTC
Tuuli 6 kn lännestä/lounaasta
Näkyvyys 10 km tai enemmän
ei pilviä alle 1500 m:ssä eikä cumulonimbus-pilviä

TAF: EFKT 041424Z 0415/0417 25006KT CAVOK

METAR-TAF

Säähavainnot ja -ennusteet yli 4000 lentoasemalta (METAR- ja TAF-raportit).

Käytössä olevat sääasemat on merkitty karttaan keltaisilla ja punaisilla pisteillä.

Aseta hiiri pisteen päälle nähdäksesi sääaseman nimen.

Klikkaa sitten nähdäksesi säähavainnot ja -ennusteet.

Kartan vaihtaminen: klikkaa mustalla rastilla varustettuja vihreitä pisteitä, niin voit zoomata sisään; viivalla varustettua vihreää pistettä, niin voit zoomata ulos tai vihreitä nuolia, niin pääset viereisille kartoille.


METAR-TAF: